Logo AVAMET
Benvolgut visitant, si us plau, ingressa Recuperar contrasenya

Inforatge Castelló de la Plana Tetuan

Dades diàries. Acumulats / Últims 30 dies disponibles

Data Temperatura (°C) Humitat rel. (%) Pressió rel. (hPa) Vent (km/h) Precipitació
Mínima Mitjana Màxima Amplitud
tèrmica
Mínima Mitjana Màxima Mínima Mitjana Màxima Predom. Mitjana Ràfega
màxima
Total
(mm)
Índex-n
Mínima Mitjana Màxima Mínima Mitjana Màxima n
0 a 1
P0 max
mm 5'
Dades mensuals acumulades fins l'últim dia disponible
10/2019 14,3 18,7 21,9 22,1 22,8 25,6 28,3 14,0 33 70 94 1.008 1.017 1.023   4,9 42,6 1,4
Dades anuals acumulades fins l'últim dia disponible
2019 2,3 15,3 25,8 19,3 12,3 23,3 37,5 35,2 16 64 95 990 1.017 1.036   6,5 90,7 166,4
Últims 30 dies disponibles
15-10-2019 14,3     19,3     22,8 8,5 33 47 83 1.012 1.017 1.020 SSO 8,1 40,2 0,0
14-10-2019 19,4     21,9     25,4 6,0 63 81 91 1.011 1.014 1.017 NNW 4,5 22,5 0,2
13-10-2019 20,9     22,8     25,9 5,0 70 81 87 1.016 1.017 1.019 NNW 5,1 24,1 0,0
12-10-2019 20,2     22,3     25,3 5,1 71 83 88 1.018 1.019 1.021 E 4,3 25,7 0,0
11-10-2019 20,1     22,4     26,2 6,1 63 78 86 1.020 1.021 1.023 SSW 4,8 30,6 0,0
10-10-2019 19,6     21,3     23,1 3,5 54 73 90 1.020 1.021 1.023 E 4,0 25,7 1,2 0,20
09-10-2019 20,3     22,7     25,8 5,5 71 80 87 1.016 1.017 1.020 ESE 6,1 24,1 0,0
08-10-2019 17,4     22,0     25,4 8,0 61 74 87 1.017 1.019 1.021 SSO 4,5 25,9 0,0
07-10-2019 17,7     21,7     25,1 7,4 42 64 86 1.014 1.017 1.019 SSO 4,9 38,9 0,0
06-10-2019 18,6     22,0     25,7 7,1 69 81 90 1.016 1.017 1.019 SSO 2,6 24,1 0,0
05-10-2019 18,3     22,4     25,3 7,0 57 68 79 1.014 1.015 1.017 SSO 3,6 25,9 0,0
04-10-2019 15,0     21,5     26,8 11,8 40 63 83 1.014 1.016 1.017 S 3,6 25,9 0,0
03-10-2019 17,4     21,8     25,2 7,8 39 52 76 1.015 1.016 1.018 SSO 5,7 38,9 0,0
02-10-2019 21,9     24,8     28,3 6,4 33 45 58 1.010 1.013 1.017 S 7,9 42,6 0,0
01-10-2019 18,9     23,2     27,3 8,4 61 84 94 1.008 1.011 1.015 S 3,1 22,6 0,0
30-09-2019 19,9     23,5     26,9 7,0 69 84 95 1.015 1.016 1.018 ESE 6,2 35,4 0,0
29-09-2019 19,6     23,6     27,4 7,8 62 81 91 1.015 1.017 1.020 SSO 3,3 25,9 0,0
28-09-2019 21,4     23,5     26,5 5,1 70 82 92 1.018 1.020 1.021 ESE 6,8 29,6 0,0
27-09-2019 19,4     23,2     26,4 7,0 72 84 93 1.016 1.018 1.019 S 2,7 24,1 0,0
26-09-2019 19,2     23,3     27,2 8,0 52 77 88 1.018 1.018 1.020 SSO 4,5 25,9 0,0
25-09-2019 22,0     24,5     26,9 4,9 50 64 79 1.012 1.015 1.018 SSE 5,7 35,4 0,0
24-09-2019 17,7     23,6     29,2 11,5 44 71 90 1.013 1.015 1.019 SSE 2,6 19,3 0,0
23-09-2019 19,3     23,3     26,3 7,0 46 67 84 1.015 1.018 1.020 S 4,6 27,8 0,0
22-09-2019 21,6     25,5     31,2 9,6 47 73 92 1.010 1.012 1.015 SSE 4,1 37,0 0,0
21-09-2019 21,3     23,9     28,3 7,0 55 78 89 1.011 1.013 1.016 ESE 6,1 25,9 0,8
20-09-2019 21,7     23,3     26,3 4,6 72 82 92 1.016 1.018 1.019 SE 7,6 38,9 3,8
19-09-2019 19,3     23,8     27,1 7,8 65 75 84 1.016 1.017 1.019 SE 5,2 33,9 0,0
18-09-2019 20,2     24,8     29,0 8,8 50 67 82 1.013 1.015 1.016 SSE 3,2 22,6 0,0
17-09-2019 19,7     24,4     29,1 9,4 44 69 91 1.014 1.016 1.019 S 3,0 20,9 0,0
16-09-2019 22,1     24,3     27,2 5,1 58 76 89 1.017 1.019 1.020 E 9,2 35,4 0,0
Últims 13 mesos disponibles
09/2019 15,1 20,5 23,5 23,8 21,7 27,3 31,2 16,1 50 71 84 1.009 1.018 1.025 SE 7,4 72,4 49,6
08/2019 18,3 22,6 25,8 26,2 25,8 29,8 33,1 14,8 53 72 80 1.010 1.016 1.020 S 5,8 53,7 28,6
07/2019 20,6 23,0 25,1 26,8 27,7 30,3 34,4 13,8 48 66 79 1.005 1.014 1.021 SE 5,8 55,6 11,0
06/2019 12,7 18,6 23,0 22,7 21,1 26,6 37,5 24,8 37 63 79 1.008 1.015 1.022 SE 6,6 50,0 0,0
05/2019 9,6 14,4 17,5 18,3 17,9 22,2 28,2 18,6 48 66 82 1.004 1.015 1.024 SSE 6,3 61,1 15,2
04/2019 8,2 11,8 14,8 15,5 16,1 19,5 27,1 18,9 43 62 85 998 1.013 1.025 S 9,3 75,9 49,6
03/2019 6,3 10,1 14,2 14,7 13,2 19,2 25,5 19,2 38 58 79 1.011 1.023 1.030 S 6,0 51,9 10,6
02/2019 3,1 7,7 10,8 12,4 12,7 17,2 23,7 20,6 29 64 80 992 1.024 1.034 S 5,4 90,7 0,2
01/2019 2,3 6,7 10,2 11,7 12,3 16,3 22,9 20,6 34 57 81 1.000 1.018 1.030 SSO 6,5 83,3 0,2
12/2018 5,3 9,5 12,6 13,6 14,4 17,9 24,0 18,7 51 70 87 1.007 1.025 1.030 SSO 3,2 90,7 7,4
11/2018 7,3 11,4 16,3 15,0 14,6 18,9 21,6 14,3 53 70 86 1.001 1.015 1.024 SO 5,2 61,1 83,0
10/2018 7,3 15,4 19,5 19,0 14,8 22,8 28,1 20,8 37 68 88 999 1.014 1.026 SSE 6,8 61,1 131,2
09/2018 17,4 20,9 23,8 24,4 24,7 27,8 30,9 13,5 51 73 83 1.012 1.019 1.029 5,9 50,0 65,0
Tots els anys disponibles
Temperatura (°C)
Humitat relativa (%)
Velocitat del vent i ràfega màxima (km/h)
Direcció del vent (°)
Pressió (hPa)
Precipitació (mm)
Nota sobre les dades: s'avisa a l'usuari de la provisionalitat i no oficialitat d'aquestes dades
Logo AVAMET blanc
Web allotjada a Sollutia
Llicència de Creative CommonsLa web d'AVAMET i els seus continguts estan subjectes a una llicència de
Reconeixement - No Comercial - Compartir igual
Últimes estacions: Villena - Villa Ventín (Soci), Benissa - Convent (Soci), Xàbia Fontanella (Soci), Castielfabib (Soci), Sant Mateu (Soci), Vallada (Soci), Agullent (Soci), - - -